Weather observations for the past three days for
Springfield - Abraham Lincoln Capital Airport
Imperial (Metric)
Date Time (cdt) Wind (mph) Vis. (mi.) Weather Sky Cond. Temperature (ºF) Relative Humidity Wind Chill (°F) Heat Index (°F) Pressure Precipitation (in)
Air Dwpt 6 hour altimeter (in) sea level (mb) 1 hr 3 hr 6 hr
Max. Min.
05 05:52 Calm 10.00 Fair CLR 73.9 70 88% 29.92 1012.5
05 04:52 W 5 10.00 Fair CLR 75.9 70 82% 77 29.92 1012.6
05 03:52 SW 5 10.00 Fair CLR 75 71.1 88% 75 29.93 1012.8
05 02:52 SW 3 10.00 Fair CLR 75 73 94% 73 29.93 1013.0
05 01:52 Calm 10.00 Fair CLR 75.9 73 91% 76 29.93 1013.0
05 00:52 Calm 10.00 Fair CLR 75.9 73.9 91.9 75.9 94% 75 29.93 1013.0
04 23:52 Calm 10.00 Fair CLR 75.9 73.9 94% 75 29.93 1013.0
04 22:52 Calm 10.00 Fair CLR 78.1 73.9 87% 81 29.94 1013.2
04 21:52 Calm 10.00 Fair CLR 79 75 88% 83 29.93 1012.9
04 20:52 Calm 10.00 Fair CLR 81 75 82% 87 29.92 1012.5
04 19:52 Calm 10.00 Fair CLR 84.9 75.9 75% 94 29.91 1012.2
04 18:52 Calm 10.00 Fair CLR 91.9 75.9 97 91.9 60% 104 29.9 1012.0
04 17:52 NW 5 10.00 Fair CLR 95 72 47% 103 29.9 1012.0
04 16:52 W 3 10.00 Fair CLR 96.1 71.1 44% 104 29.91 1012.1
04 15:52 N 5 10.00 Fair CLR 97 71.1 43% 105 29.93 1012.7
04 14:52 Vrbl 3 10.00 A Few Clouds FEW060 97 71.1 43% 105 29.95 1013.5
04 13:52 N 7 10.00 Fair CLR 96.1 73 48% 106 29.97 1014.0
04 12:52 N 9 10.00 Fair CLR 96.1 72 96.1 78.1 46% 105 29.98 1014.5
04 10:52 W 7 10.00 Fair CLR 93 71.1 49% 100 29.99 1014.9
04 08:52 SW 9 G 20 10.00 Fair CLR 84.9 70 61% 89 29.97 1014.3
04 07:52 SW 6 10.00 Fair CLR 81 70 69% 84 29.97 1014.1
04 06:52 SW 5 10.00 Fair CLR 78.1 70 82.9 75.9 76% 80 29.96 1014.0
04 05:52 Calm 10.00 Fair CLR 77 70 79% 79 29.95 1013.6
04 04:52 SW 5 10.00 Fair CLR 80.1 70 71% 83 29.94 1013.1
04 03:52 S 6 10.00 Fair CLR 80.1 70 71% 83 29.93 1012.6
04 02:52 S 5 10.00 Fair CLR 80.1 70 71% 83 29.93 1012.9
04 01:52 S 6 10.00 Fair CLR 81 70 69% 84 29.94 1013.1
04 00:52 SW 7 10.00 Fair CLR 82.9 70 91 79 65% 87 29.95 1013.4
03 23:52 S 6 10.00 Fair CLR 82.9 69.1 63% 87 29.94 1013.1
03 22:52 S 6 10.00 Fair CLR 82 69.1 65% 85 29.93 1013.0
03 21:52 S 5 10.00 Fair CLR 80.1 68 67% 83 29.94 1013.1
03 20:52 S 5 10.00 Fair CLR 84 66 55% 86 29.92 1012.6
03 19:52 S 7 10.00 Fair CLR 87.1 68 53% 91 29.9 1011.9
03 18:52 S 6 10.00 Fair CLR 91 68 99 91 47% 95 29.91 1012.0
03 17:52 SW 5 10.00 Fair CLR 96.1 66.9 39% 100 29.9 1012.0
03 16:52 SW 9 10.00 Fair CLR 97 66 36% 101 29.9 1012.0
03 15:52 SW 8 10.00 Fair CLR 98.1 66.9 36% 103 29.91 1012.3
03 14:52 W 8 10.00 A Few Clouds FEW070 98.1 66.9 36% 103 29.93 1012.7
03 13:52 SE 5 10.00 Fair CLR 96.1 69.1 41% 102 29.94 1013.3
03 12:52 W 3 10.00 Fair CLR 95 70 96.1 77 44% 101 29.96 1013.8
03 11:52 W 6 10.00 A Few Clouds FEW100 93.9 71.1 48% 101 29.98 1014.3
03 10:52 SW 8 10.00 Partly Cloudy FEW100 SCT120 91 71.1 52% 98 29.98 1014.5
03 09:52 SW 9 10.00 Partly Cloudy SCT120 89.1 71.1 55% 95 29.98 1014.5
03 08:52 SW 7 10.00 Partly Cloudy SCT120 82 70 67% 86 29.98 1014.6
03 07:52 SW 7 10.00 Fair CLR 80.1 70 71% 83 29.98 1014.6
03 06:52 SW 6 10.00 Fair CLR 77 69.1 82 75.9 77% 79 29.97 1014.4
03 05:52 SW 6 10.00 Fair CLR 77 69.1 77% 79 29.96 1014.0
03 04:52 S 5 10.00 Fair CLR 77 70 79% 79 29.96 1013.9
03 03:52 S 5 10.00 Fair CLR 77 70 79% 79 29.96 1013.9
03 02:52 S 6 10.00 Fair CLR 77 70 79% 79 29.96 1013.8
03 01:52 S 6 10.00 Fair CLR 80.1 70 71% 83 29.96 1013.9
03 00:52 S 7 10.00 Fair CLR 82 70 91.9 82 67% 86 29.97 1014.1
02 23:52 S 10 10.00 Fair CLR 84 69.1 61% 88 29.96 1013.7
02 22:52 S 9 10.00 Fair CLR 86 69.1 57% 90 29.96 1013.6
02 21:52 S 7 10.00 Fair CLR 84 69.1 61% 88 29.95 1013.6
02 20:52 S 7 10.00 Fair CLR 84 69.1 61% 88 29.94 1013.3
02 19:52 S 6 10.00 Fair CLR 86 70 59% 91 29.93 1013.0
02 18:52 S 6 10.00 Partly Cloudy SCT075 91.9 69.1 100 91.9 47% 97 29.94 1013.1
02 17:52 SW 6 10.00 Fair CLR 96.1 66.9 39% 100 29.93 1012.9
02 16:52 SW 7 10.00 A Few Clouds FEW090 97 66.9 37% 101 29.94 1013.1
02 15:52 Calm 10.00 Partly Cloudy SCT080 97 66.9 37% 101 29.95 1013.4
02 14:52 Vrbl 6 10.00 A Few Clouds FEW070 98.1 68 38% 103 29.96 1013.9
02 13:52 SW 8 10.00 Fair CLR 98.1 69.1 39% 104 29.98 1014.4
02 12:52 W 14 10.00 Fair CLR 97 68 97 77 39% 102 29.99 1014.8
02 11:52 SW 10 10.00 Fair CLR 95 69.1 43% 101 30 1015.3
02 10:52 SW 13 10.00 Fair CLR 91.9 69.1 47% 97 30.01 1015.6
02 09:52 SW 8 10.00 Fair CLR 88 70 55% 93 30.01 1015.6
02 08:52 SW 10 10.00 Fair CLR 84 70 63% 88 30.01 1015.7
02 07:52 SW 7 10.00 Fair CLR 80.1 69.1 69% 83 30.02 1015.8
02 06:52 SW 6 10.00 Fair CLR 77 69.1 82 75.9 77% 79 30.01 1015.6
Date Time (cdt) Wind (mph) Vis. (mi.) Weather Sky Cond. Air Dwpt Max. Min. Relative Humidity Wind Chill (°F) Heat Index (°F) altimeter (in) sea level (mb) 1 hr 3 hr 6 hr
6 hour
Temperature (ºF) Pressure Precipitation (in)